Terminal Aerodrome Forecast
Issued by NWS Twin Cities, MN

Home | Current Version | Previous Version | Graphics & Text | Print | Product List | Glossary On
Versions: 1 2 3 4 5 6 7 8 9 10 11 12 13 14 15 16 17 18 19
000
FTUS43 KMPX 102340
TAFSTC
TAF
KSTC 102340Z 1100/1124 VRB03KT P6SM BKN080
     FM110500 19005KT 1SM -SN OVC015
     FM110800 18006KT P6SM OVC035
     FM111100 25005KT P6SM OVC060
     FM111300 28006KT P6SM VCSH SCT020 OVC045
     FM111600 33014G23KT P6SM OVC020
     FM112200 33016G25KT P6SM BKN035=

USA.gov is the U.S. government's official web portal to all federal, state and local government web resources and services.